Impacts TAF Board INFO
FOR SITUATIONAL AWARENESS. NOT TO BE USED FOR FLIGHT PLANNING PURPOSES.
IDs:

KSTL - St Louis/Lambert Int, MO, US

Issued at 0537 UTC 20 Feb 2018
Updated at 0750 UTC 20 Feb 2018
Potential Impact None Slight Moderate High
Time0651Z 20/08Z 20/09Z 20/10Z 20/11Z 20/12Z 20/13Z 20/14Z 20/15Z 20/16Z 20/17Z 20/18Z 20/19Z 20/20Z>>
Type OBS PRVL PRVL PRVL PRVL PRVL PRVL PRVL PRVL PRVL PRVL PRVL PRVL PRVL
VIS 10 >6 >6 >6 >6 >6 >6 >6 6 6 6 6 6 6
CIG 170 50 50 50 50 50 50 50 25 25 25 25 25 25
Cover BKN OVC OVC OVC OVC OVC OVC OVC OVC OVC OVC OVC OVC OVC
FltCat VFR VFR VFR VFR VFR VFR VFR VFR MVFR MVFR MVFR MVFR MVFR MVFR
WX -- -SHRA -SHRA -SHRA -SHRA -SHRA -SHRA -SHRA -SHRA -SHRA -SHRA -SHRA -SHRA -SHRA
WDir 170 190 190 190 190 190 190 190 190 190 190 190 190 190
WSpd 15 13 13 13 13 13 13 13 14 14 14 14 14 14
WGst 22 23 23 23 23 23 23 23 24 24 24 24 24 24

Raw TAF
KSTL 200537Z 2006/2112 19013G23KT P6SM -SHRA OVC050
  FM201500 19014G24KT 6SM -SHRA OVC025
  FM202200 22013G21KT 4SM -SHRA OVC015
  FM210200 29014G22KT 3SM -SHRA OVC008
  FM210600 33014G24KT 4SM -RA OVC010


Raw METAR
KSTL 200651Z 17015G22KT 10SM SCT120 BKN170 19/16 A2985 RMK AO2 PK WND 17026/0604 SLP104 T01940156 $
KSTL 200551Z 17011G20KT 10SM OVC100 19/16 A2987 RMK AO2 RAE43 SLP109 P0000 60000 T01940156 10200 20183 402000106 58000 $
KSTL 200451Z 19009KT 9SM -RA SCT030 BKN060 OVC090 19/16 A2989 RMK AO2 SLP118 P0000 T01890156 $

METAR Board
Radar Display
Forecast Discussion

FOR SITUATIONAL AWARENESS. NOT TO BE USED FOR FLIGHT PLANNING PURPOSES.